sensor_id;sensor_type;location;lat;lon;timestamp;P1;durP1;ratioP1;P2;durP2;ratioP2
39104;SDS011;46464;51.154;13.812;2023-04-06T13:25:34;14.40;;;3.72;;
39104;SDS011;46464;51.154;13.812;2023-04-06T13:28:02;21.80;;;4.68;;
39104;SDS011;46464;51.154;13.812;2023-04-06T13:30:28;5.32;;;3.42;;
39104;SDS011;46464;51.154;13.812;2023-04-06T13:35:22;26.60;;;4.72;;
39104;SDS011;46464;51.154;13.812;2023-04-06T13:37:48;35.72;;;5.28;;
39104;SDS011;46464;51.154;13.812;2023-04-06T13:40:19;51.03;;;6.32;;
39104;SDS011;46464;51.154;13.812;2023-04-06T13:42:45;31.08;;;4.95;;
39104;SDS011;46464;51.154;13.812;2023-04-06T13:45:13;8.05;;;3.22;;
39104;SDS011;46464;51.154;13.812;2023-04-06T13:47:40;9.18;;;3.05;;
39104;SDS011;46464;51.154;13.812;2023-04-06T13:50:06;6.55;;;3.08;;
39104;SDS011;46464;51.154;13.812;2023-04-06T13:52:34;7.35;;;2.88;;
39104;SDS011;46464;51.154;13.812;2023-04-06T13:55:02;8.73;;;2.92;;
39104;SDS011;46464;51.154;13.812;2023-04-06T13:57:29;8.15;;;3.65;;
39104;SDS011;46464;51.154;13.812;2023-04-06T13:59:56;5.55;;;3.30;;
39104;SDS011;46464;51.154;13.812;2023-04-06T14:02:22;4.50;;;3.03;;
39104;SDS011;46464;51.154;13.812;2023-04-06T14:04:53;3.90;;;2.75;;
39104;SDS011;46464;51.154;13.812;2023-04-06T14:09:52;27.55;;;4.97;;
39104;SDS011;46464;51.154;13.812;2023-04-06T14:12:26;4.78;;;2.50;;
39104;SDS011;46464;51.154;13.812;2023-04-06T14:14:53;3.55;;;2.97;;
39104;SDS011;46464;51.154;13.812;2023-04-06T14:17:19;4.30;;;3.08;;
39104;SDS011;46464;51.154;13.812;2023-04-06T14:19:54;11.13;;;3.08;;
39104;SDS011;46464;51.154;13.812;2023-04-06T14:22:20;4.78;;;2.80;;
39104;SDS011;46464;51.154;13.812;2023-04-06T14:24:47;4.82;;;3.30;;
39104;SDS011;46464;51.154;13.812;2023-04-06T14:27:13;4.30;;;2.90;;
39104;SDS011;46464;51.154;13.812;2023-04-06T14:29:40;4.43;;;2.85;;
39104;SDS011;46464;51.154;13.812;2023-04-06T14:32:16;4.75;;;3.17;;
39104;SDS011;46464;51.154;13.812;2023-04-06T14:34:43;5.13;;;3.05;;
39104;SDS011;46464;51.154;13.812;2023-04-06T14:42:18;4.88;;;2.47;;
39104;SDS011;46464;51.154;13.812;2023-04-06T14:44:44;6.20;;;3.80;;
39104;SDS011;46464;51.154;13.812;2023-04-06T14:49:41;3.75;;;2.72;;
39104;SDS011;46464;51.154;13.812;2023-04-06T14:52:08;4.85;;;2.95;;
39104;SDS011;46464;51.154;13.812;2023-04-06T14:54:34;6.70;;;4.18;;
39104;SDS011;46464;51.154;13.812;2023-04-06T14:57:01;7.30;;;3.78;;
39104;SDS011;46464;51.154;13.812;2023-04-06T15:01:54;5.22;;;3.38;;
39104;SDS011;46464;51.154;13.812;2023-04-06T15:04:21;5.65;;;2.70;;
39104;SDS011;46464;51.154;13.812;2023-04-06T15:06:47;5.75;;;2.95;;
39104;SDS011;46464;51.154;13.812;2023-04-06T15:09:14;5.05;;;2.70;;
39104;SDS011;46464;51.154;13.812;2023-04-06T15:14:08;4.72;;;3.10;;
39104;SDS011;46464;51.154;13.812;2023-04-06T15:16:34;5.57;;;2.75;;
39104;SDS011;46464;51.154;13.812;2023-04-06T15:19:01;3.72;;;2.50;;
39104;SDS011;46464;51.154;13.812;2023-04-06T15:23:54;4.97;;;2.28;;
39104;SDS011;46464;51.154;13.812;2023-04-06T15:26:21;3.28;;;2.40;;
39104;SDS011;46464;51.154;13.812;2023-04-06T15:28:48;4.90;;;3.20;;
39104;SDS011;46464;51.154;13.812;2023-04-06T15:31:15;6.15;;;2.40;;
39104;SDS011;46464;51.154;13.812;2023-04-06T15:33:58;4.03;;;2.50;;
39104;SDS011;46464;51.154;13.812;2023-04-06T15:38:57;4.15;;;2.60;;
39104;SDS011;46464;51.154;13.812;2023-04-06T15:41:26;3.97;;;2.47;;
39104;SDS011;46464;51.154;13.812;2023-04-06T15:44:03;5.75;;;2.85;;
39104;SDS011;46464;51.154;13.812;2023-04-06T15:46:30;3.75;;;2.58;;
39104;SDS011;46464;51.154;13.812;2023-04-06T15:48:56;5.28;;;2.67;;
39104;SDS011;46464;51.154;13.812;2023-04-06T15:51:23;4.25;;;2.70;;
39104;SDS011;46464;51.154;13.812;2023-04-06T15:53:49;4.60;;;2.05;;
39104;SDS011;46464;51.154;13.812;2023-04-06T15:56:16;3.72;;;2.35;;
39104;SDS011;46464;51.154;13.812;2023-04-06T15:58:42;3.85;;;2.42;;
39104;SDS011;46464;51.154;13.812;2023-04-06T16:01:12;4.78;;;2.40;;
39104;SDS011;46464;51.154;13.812;2023-04-06T16:03:40;4.82;;;2.70;;
39104;SDS011;46464;51.154;13.812;2023-04-06T16:06:06;3.20;;;2.35;;
39104;SDS011;46464;51.154;13.812;2023-04-06T16:08:37;3.85;;;2.30;;
39104;SDS011;46464;51.154;13.812;2023-04-06T16:11:06;5.00;;;2.53;;
39104;SDS011;46464;51.154;13.812;2023-04-06T16:16:03;4.45;;;2.65;;
39104;SDS011;46464;51.154;13.812;2023-04-06T16:18:31;4.60;;;2.40;;
39104;SDS011;46464;51.154;13.812;2023-04-06T16:21:01;6.80;;;3.00;;
39104;SDS011;46464;51.154;13.812;2023-04-06T16:28:22;5.70;;;2.58;;
39104;SDS011;46464;51.154;13.812;2023-04-06T16:30:50;3.05;;;2.10;;
39104;SDS011;46464;51.154;13.812;2023-04-06T16:33:17;4.00;;;2.60;;
39104;SDS011;46464;51.154;13.812;2023-04-06T16:35:44;7.35;;;3.13;;
39104;SDS011;46464;51.154;13.812;2023-04-06T16:38:12;4.65;;;2.65;;
39104;SDS011;46464;51.154;13.812;2023-04-06T16:45:40;4.00;;;2.25;;
39104;SDS011;46464;51.154;13.812;2023-04-06T16:48:06;3.90;;;2.30;;
39104;SDS011;46464;51.154;13.812;2023-04-06T16:50:34;3.92;;;2.30;;
39104;SDS011;46464;51.154;13.812;2023-04-06T16:53:01;4.60;;;2.47;;
39104;SDS011;46464;51.154;13.812;2023-04-06T16:55:28;4.20;;;2.65;;
39104;SDS011;46464;51.154;13.812;2023-04-06T16:57:54;3.42;;;2.25;;
39104;SDS011;46464;51.154;13.812;2023-04-06T17:00:21;5.55;;;2.75;;
39104;SDS011;46464;51.154;13.812;2023-04-06T17:02:47;4.47;;;2.30;;
39104;SDS011;46464;51.154;13.812;2023-04-06T17:05:17;4.07;;;2.08;;
39104;SDS011;46464;51.154;13.812;2023-04-06T17:07:49;3.03;;;2.08;;
39104;SDS011;46464;51.154;13.812;2023-04-06T17:10:16;3.47;;;2.20;;
39104;SDS011;46464;51.154;13.812;2023-04-06T17:12:49;3.47;;;2.60;;
39104;SDS011;46464;51.154;13.812;2023-04-06T17:15:15;3.55;;;2.40;;
39104;SDS011;46464;51.154;13.812;2023-04-06T17:17:48;4.53;;;2.63;;
39104;SDS011;46464;51.154;13.812;2023-04-06T17:20:19;4.53;;;2.75;;
39104;SDS011;46464;51.154;13.812;2023-04-06T17:22:46;6.07;;;2.35;;
39104;SDS011;46464;51.154;13.812;2023-04-06T17:25:21;3.67;;;2.25;;
39104;SDS011;46464;51.154;13.812;2023-04-06T17:27:48;3.38;;;2.45;;
39104;SDS011;46464;51.154;13.812;2023-04-06T17:30:14;5.38;;;2.47;;
39104;SDS011;46464;51.154;13.812;2023-04-06T17:32:44;5.05;;;2.45;;
39104;SDS011;46464;51.154;13.812;2023-04-06T17:35:11;5.25;;;2.80;;
39104;SDS011;46464;51.154;13.812;2023-04-06T17:37:40;5.55;;;3.08;;
39104;SDS011;46464;51.154;13.812;2023-04-06T17:40:09;3.78;;;2.30;;
39104;SDS011;46464;51.154;13.812;2023-04-06T17:42:39;5.93;;;3.17;;
39104;SDS011;46464;51.154;13.812;2023-04-06T17:45:16;5.65;;;3.00;;
39104;SDS011;46464;51.154;13.812;2023-04-06T17:47:43;5.13;;;2.83;;
39104;SDS011;46464;51.154;13.812;2023-04-06T17:50:10;5.53;;;3.13;;
39104;SDS011;46464;51.154;13.812;2023-04-06T17:52:36;5.43;;;3.13;;
39104;SDS011;46464;51.154;13.812;2023-04-06T17:55:04;3.67;;;2.70;;
39104;SDS011;46464;51.154;13.812;2023-04-06T17:57:30;4.53;;;2.80;;
39104;SDS011;46464;51.154;13.812;2023-04-06T17:59:57;5.38;;;3.22;;
39104;SDS011;46464;51.154;13.812;2023-04-06T18:02:23;4.75;;;3.38;;
39104;SDS011;46464;51.154;13.812;2023-04-06T18:04:51;6.10;;;3.28;;
39104;SDS011;46464;51.154;13.812;2023-04-06T18:07:18;5.28;;;3.33;;
39104;SDS011;46464;51.154;13.812;2023-04-06T18:09:44;5.00;;;3.78;;
39104;SDS011;46464;51.154;13.812;2023-04-06T18:12:11;5.03;;;3.70;;
39104;SDS011;46464;51.154;13.812;2023-04-06T18:14:38;8.90;;;4.35;;
39104;SDS011;46464;51.154;13.812;2023-04-06T18:17:05;5.18;;;3.65;;
39104;SDS011;46464;51.154;13.812;2023-04-06T18:19:32;5.50;;;4.05;;
39104;SDS011;46464;51.154;13.812;2023-04-06T18:21:59;5.60;;;4.38;;
39104;SDS011;46464;51.154;13.812;2023-04-06T18:24:27;5.97;;;4.18;;
39104;SDS011;46464;51.154;13.812;2023-04-06T18:27:07;9.68;;;5.00;;
39104;SDS011;46464;51.154;13.812;2023-04-06T18:29:33;6.40;;;4.90;;
39104;SDS011;46464;51.154;13.812;2023-04-06T18:32:01;5.95;;;4.53;;
39104;SDS011;46464;51.154;13.812;2023-04-06T18:34:28;5.97;;;4.63;;
39104;SDS011;46464;51.154;13.812;2023-04-06T18:36:54;8.73;;;4.40;;
39104;SDS011;46464;51.154;13.812;2023-04-06T18:39:21;5.95;;;4.60;;
39104;SDS011;46464;51.154;13.812;2023-04-06T18:41:47;6.97;;;4.57;;
39104;SDS011;46464;51.154;13.812;2023-04-06T18:44:14;6.72;;;4.63;;
39104;SDS011;46464;51.154;13.812;2023-04-06T18:46:42;7.03;;;5.07;;
39104;SDS011;46464;51.154;13.812;2023-04-06T18:49:09;7.18;;;4.95;;
39104;SDS011;46464;51.154;13.812;2023-04-06T18:51:36;7.40;;;4.65;;
39104;SDS011;46464;51.154;13.812;2023-04-06T18:54:03;6.00;;;4.38;;
39104;SDS011;46464;51.154;13.812;2023-04-06T18:56:29;8.07;;;4.70;;
39104;SDS011;46464;51.154;13.812;2023-04-06T18:58:56;5.88;;;4.68;;
39104;SDS011;46464;51.154;13.812;2023-04-06T19:01:26;6.65;;;4.63;;
39104;SDS011;46464;51.154;13.812;2023-04-06T19:03:55;5.55;;;4.47;;
39104;SDS011;46464;51.154;13.812;2023-04-06T19:06:22;9.45;;;5.63;;
39104;SDS011;46464;51.154;13.812;2023-04-06T19:11:16;6.93;;;5.13;;
39104;SDS011;46464;51.154;13.812;2023-04-06T19:13:42;6.68;;;5.20;;
39104;SDS011;46464;51.154;13.812;2023-04-06T19:16:15;6.75;;;5.18;;
39104;SDS011;46464;51.154;13.812;2023-04-06T19:18:42;6.40;;;4.90;;
39104;SDS011;46464;51.154;13.812;2023-04-06T19:21:17;7.63;;;5.90;;
39104;SDS011;46464;51.154;13.812;2023-04-06T19:23:46;7.85;;;6.05;;
39104;SDS011;46464;51.154;13.812;2023-04-06T19:26:17;7.93;;;6.50;;
39104;SDS011;46464;51.154;13.812;2023-04-06T19:28:44;9.93;;;6.90;;
39104;SDS011;46464;51.154;13.812;2023-04-06T19:33:40;9.88;;;6.40;;
39104;SDS011;46464;51.154;13.812;2023-04-06T19:36:07;7.78;;;6.25;;
39104;SDS011;46464;51.154;13.812;2023-04-06T19:41:01;8.30;;;6.00;;
39104;SDS011;46464;51.154;13.812;2023-04-06T19:43:28;10.10;;;6.72;;
39104;SDS011;46464;51.154;13.812;2023-04-06T19:45:54;10.18;;;7.32;;
39104;SDS011;46464;51.154;13.812;2023-04-06T19:48:21;9.18;;;6.97;;
39104;SDS011;46464;51.154;13.812;2023-04-06T19:50:47;8.35;;;6.65;;
39104;SDS011;46464;51.154;13.812;2023-04-06T19:53:21;8.75;;;6.90;;
39104;SDS011;46464;51.154;13.812;2023-04-06T19:55:48;9.88;;;6.97;;
39104;SDS011;46464;51.154;13.812;2023-04-06T20:00:41;9.75;;;7.75;;
39104;SDS011;46464;51.154;13.812;2023-04-06T20:03:08;10.65;;;8.02;;
39104;SDS011;46464;51.154;13.812;2023-04-06T20:05:36;9.85;;;8.27;;
39104;SDS011;46464;51.154;13.812;2023-04-06T20:08:02;9.75;;;8.07;;
39104;SDS011;46464;51.154;13.812;2023-04-06T20:10:29;11.50;;;8.93;;
39104;SDS011;46464;51.154;13.812;2023-04-06T20:12:55;11.93;;;8.48;;
39104;SDS011;46464;51.154;13.812;2023-04-06T20:15:23;11.57;;;9.05;;
39104;SDS011;46464;51.154;13.812;2023-04-06T20:17:50;10.98;;;8.45;;
39104;SDS011;46464;51.154;13.812;2023-04-06T20:20:16;15.40;;;9.05;;
39104;SDS011;46464;51.154;13.812;2023-04-06T20:22:43;9.27;;;7.75;;
39104;SDS011;46464;51.154;13.812;2023-04-06T20:25:11;11.07;;;8.52;;
39104;SDS011;46464;51.154;13.812;2023-04-06T20:30:04;9.73;;;7.22;;
39104;SDS011;46464;51.154;13.812;2023-04-06T20:32:32;10.82;;;8.13;;
39104;SDS011;46464;51.154;13.812;2023-04-06T20:34:58;11.23;;;7.50;;
39104;SDS011;46464;51.154;13.812;2023-04-06T20:37:25;10.40;;;7.75;;
39104;SDS011;46464;51.154;13.812;2023-04-06T20:39:52;12.98;;;8.68;;
39104;SDS011;46464;51.154;13.812;2023-04-06T20:42:18;12.93;;;9.70;;
39104;SDS011;46464;51.154;13.812;2023-04-06T20:44:47;12.95;;;9.88;;
39104;SDS011;46464;51.154;13.812;2023-04-06T20:47:14;12.50;;;9.18;;
39104;SDS011;46464;51.154;13.812;2023-04-06T20:49:40;12.70;;;9.20;;
39104;SDS011;46464;51.154;13.812;2023-04-06T20:52:07;15.10;;;9.80;;
39104;SDS011;46464;51.154;13.812;2023-04-06T20:54:33;12.63;;;9.40;;
39104;SDS011;46464;51.154;13.812;2023-04-06T20:57:00;13.07;;;9.55;;
39104;SDS011;46464;51.154;13.812;2023-04-06T20:59:27;13.40;;;9.48;;
39104;SDS011;46464;51.154;13.812;2023-04-06T21:01:53;12.90;;;9.55;;
39104;SDS011;46464;51.154;13.812;2023-04-06T21:04:20;13.35;;;8.60;;
39104;SDS011;46464;51.154;13.812;2023-04-06T21:06:48;12.48;;;9.23;;
39104;SDS011;46464;51.154;13.812;2023-04-06T21:09:15;11.82;;;8.52;;
39104;SDS011;46464;51.154;13.812;2023-04-06T21:11:41;14.43;;;9.77;;
39104;SDS011;46464;51.154;13.812;2023-04-06T21:14:08;13.75;;;9.55;;
39104;SDS011;46464;51.154;13.812;2023-04-06T21:16:34;14.10;;;10.48;;
39104;SDS011;46464;51.154;13.812;2023-04-06T21:19:01;13.73;;;10.77;;
39104;SDS011;46464;51.154;13.812;2023-04-06T21:21:28;17.52;;;11.98;;
39104;SDS011;46464;51.154;13.812;2023-04-06T21:23:54;15.70;;;11.75;;
39104;SDS011;46464;51.154;13.812;2023-04-06T21:26:23;14.77;;;11.30;;
39104;SDS011;46464;51.154;13.812;2023-04-06T21:28:49;14.30;;;11.75;;
39104;SDS011;46464;51.154;13.812;2023-04-06T21:31:16;15.20;;;11.80;;
39104;SDS011;46464;51.154;13.812;2023-04-06T21:33:45;14.10;;;11.35;;
39104;SDS011;46464;51.154;13.812;2023-04-06T21:36:12;14.10;;;10.38;;
39104;SDS011;46464;51.154;13.812;2023-04-06T21:38:38;13.02;;;10.10;;
39104;SDS011;46464;51.154;13.812;2023-04-06T21:41:05;15.73;;;10.32;;
39104;SDS011;46464;51.154;13.812;2023-04-06T21:43:32;13.98;;;10.35;;
39104;SDS011;46464;51.154;13.812;2023-04-06T21:45:59;15.07;;;10.52;;
39104;SDS011;46464;51.154;13.812;2023-04-06T21:48:25;13.35;;;10.93;;
39104;SDS011;46464;51.154;13.812;2023-04-06T21:50:52;12.60;;;10.10;;
39104;SDS011;46464;51.154;13.812;2023-04-06T21:53:18;18.17;;;11.15;;
39104;SDS011;46464;51.154;13.812;2023-04-06T21:55:45;17.27;;;12.32;;
39104;SDS011;46464;51.154;13.812;2023-04-06T21:58:12;15.98;;;11.23;;
39104;SDS011;46464;51.154;13.812;2023-04-06T22:00:39;17.45;;;12.55;;
39104;SDS011;46464;51.154;13.812;2023-04-06T22:03:07;15.80;;;10.73;;
39104;SDS011;46464;51.154;13.812;2023-04-06T22:05:34;14.48;;;11.07;;
39104;SDS011;46464;51.154;13.812;2023-04-06T22:08:01;17.83;;;12.75;;
39104;SDS011;46464;51.154;13.812;2023-04-06T22:10:28;17.20;;;12.77;;
39104;SDS011;46464;51.154;13.812;2023-04-06T22:15:22;19.73;;;13.10;;
39104;SDS011;46464;51.154;13.812;2023-04-06T22:17:49;18.77;;;13.55;;
39104;SDS011;46464;51.154;13.812;2023-04-06T22:20:15;17.67;;;12.52;;
39104;SDS011;46464;51.154;13.812;2023-04-06T22:22:42;19.48;;;12.88;;
39104;SDS011;46464;51.154;13.812;2023-04-06T22:25:09;17.98;;;13.60;;
39104;SDS011;46464;51.154;13.812;2023-04-06T22:27:35;18.08;;;12.57;;
39104;SDS011;46464;51.154;13.812;2023-04-06T22:30:02;17.02;;;12.73;;
39104;SDS011;46464;51.154;13.812;2023-04-06T22:32:29;17.75;;;12.93;;
39104;SDS011;46464;51.154;13.812;2023-04-06T22:34:56;19.15;;;13.40;;
39104;SDS011;46464;51.154;13.812;2023-04-06T22:37:22;16.80;;;12.30;;
39104;SDS011;46464;51.154;13.812;2023-04-06T22:39:49;17.85;;;13.13;;
39104;SDS011;46464;51.154;13.812;2023-04-06T22:42:15;16.58;;;12.45;;
39104;SDS011;46464;51.154;13.812;2023-04-06T22:44:42;16.95;;;13.00;;
39104;SDS011;46464;51.154;13.812;2023-04-06T22:47:08;18.77;;;12.88;;
39104;SDS011;46464;51.154;13.812;2023-04-06T22:49:35;15.50;;;12.32;;
39104;SDS011;46464;51.154;13.812;2023-04-06T22:52:01;18.80;;;12.18;;
39104;SDS011;46464;51.154;13.812;2023-04-06T22:57:15;19.17;;;13.05;;
39104;SDS011;46464;51.154;13.812;2023-04-06T22:59:42;17.30;;;13.20;;
39104;SDS011;46464;51.154;13.812;2023-04-06T23:02:08;15.65;;;12.32;;
39104;SDS011;46464;51.154;13.812;2023-04-06T23:04:36;17.05;;;12.73;;
39104;SDS011;46464;51.154;13.812;2023-04-06T23:07:02;19.77;;;11.98;;
39104;SDS011;46464;51.154;13.812;2023-04-06T23:09:28;17.98;;;12.85;;
39104;SDS011;46464;51.154;13.812;2023-04-06T23:11:55;14.52;;;11.73;;
39104;SDS011;46464;51.154;13.812;2023-04-06T23:14:22;17.50;;;13.23;;
39104;SDS011;46464;51.154;13.812;2023-04-06T23:16:48;19.98;;;13.38;;
39104;SDS011;46464;51.154;13.812;2023-04-06T23:19:15;18.92;;;13.35;;
39104;SDS011;46464;51.154;13.812;2023-04-06T23:21:41;17.70;;;12.85;;
39104;SDS011;46464;51.154;13.812;2023-04-06T23:24:08;19.83;;;13.43;;
39104;SDS011;46464;51.154;13.812;2023-04-06T23:26:34;22.77;;;14.38;;
39104;SDS011;46464;51.154;13.812;2023-04-06T23:29:01;19.88;;;13.38;;
39104;SDS011;46464;51.154;13.812;2023-04-06T23:31:27;18.40;;;13.73;;
39104;SDS011;46464;51.154;13.812;2023-04-06T23:33:54;18.40;;;13.55;;
39104;SDS011;46464;51.154;13.812;2023-04-06T23:36:20;18.77;;;13.85;;
39104;SDS011;46464;51.154;13.812;2023-04-06T23:38:47;19.60;;;13.68;;
39104;SDS011;46464;51.154;13.812;2023-04-06T23:41:13;18.67;;;13.07;;
39104;SDS011;46464;51.154;13.812;2023-04-06T23:43:41;19.20;;;11.98;;
39104;SDS011;46464;51.154;13.812;2023-04-06T23:46:07;16.90;;;12.68;;
39104;SDS011;46464;51.154;13.812;2023-04-06T23:48:34;17.55;;;11.80;;
39104;SDS011;46464;51.154;13.812;2023-04-06T23:51:00;15.73;;;11.20;;
39104;SDS011;46464;51.154;13.812;2023-04-06T23:53:27;15.73;;;11.13;;
39104;SDS011;46464;51.154;13.812;2023-04-06T23:55:53;16.55;;;11.45;;
39104;SDS011;46464;51.154;13.812;2023-04-06T23:58:20;17.10;;;11.07;;
